sensor_id;sensor_type;location;lat;lon;timestamp;pressure;altitude;pressure_sealevel;temperature;humidity
64521;BME280;50896;46.714;17.322;2023-02-19T00:01:11;100794.88;;;5.54;100.00
64521;BME280;50896;46.714;17.322;2023-02-19T00:03:39;100803.03;;;5.51;100.00
64521;BME280;50896;46.714;17.322;2023-02-19T00:06:08;100793.66;;;5.46;100.00
64521;BME280;50896;46.714;17.322;2023-02-19T00:08:37;100763.09;;;5.33;100.00
64521;BME280;50896;46.714;17.322;2023-02-19T00:11:10;100745.25;;;5.36;100.00
64521;BME280;50896;46.714;17.322;2023-02-19T00:13:43;100752.34;;;5.47;100.00
64521;BME280;50896;46.714;17.322;2023-02-19T00:16:29;100760.47;;;5.44;100.00
64521;BME280;50896;46.714;17.322;2023-02-19T00:18:56;100767.06;;;5.38;100.00
64521;BME280;50896;46.714;17.322;2023-02-19T00:21:24;100760.72;;;5.29;100.00
64521;BME280;50896;46.714;17.322;2023-02-19T00:23:56;100784.06;;;5.45;100.00
64521;BME280;50896;46.714;17.322;2023-02-19T00:26:24;100800.13;;;5.42;100.00
64521;BME280;50896;46.714;17.322;2023-02-19T00:28:52;100782.41;;;5.33;100.00
64521;BME280;50896;46.714;17.322;2023-02-19T00:31:30;100809.38;;;5.48;100.00
64521;BME280;50896;46.714;17.322;2023-02-19T00:34:02;100801.34;;;5.50;100.00
64521;BME280;50896;46.714;17.322;2023-02-19T00:36:30;100786.84;;;5.44;100.00
64521;BME280;50896;46.714;17.322;2023-02-19T00:38:57;100791.28;;;5.32;100.00
64521;BME280;50896;46.714;17.322;2023-02-19T00:41:24;100778.56;;;5.26;100.00
64521;BME280;50896;46.714;17.322;2023-02-19T00:44:03;100747.97;;;5.01;100.00
64521;BME280;50896;46.714;17.322;2023-02-19T00:46:38;100781.69;;;5.20;100.00
64521;BME280;50896;46.714;17.322;2023-02-19T00:49:06;100775.09;;;5.14;100.00
64521;BME280;50896;46.714;17.322;2023-02-19T00:51:36;100775.31;;;5.11;100.00
64521;BME280;50896;46.714;17.322;2023-02-19T00:54:03;100769.31;;;5.09;100.00
64521;BME280;50896;46.714;17.322;2023-02-19T00:56:31;100783.56;;;5.06;100.00
64521;BME280;50896;46.714;17.322;2023-02-19T00:58:57;100778.53;;;5.03;100.00
64521;BME280;50896;46.714;17.322;2023-02-19T01:01:24;100780.81;;;5.08;100.00
64521;BME280;50896;46.714;17.322;2023-02-19T01:03:51;100785.50;;;5.04;100.00
64521;BME280;50896;46.714;17.322;2023-02-19T01:06:19;100789.69;;;5.07;100.00
64521;BME280;50896;46.714;17.322;2023-02-19T01:08:46;100769.78;;;4.91;100.00
64521;BME280;50896;46.714;17.322;2023-02-19T01:11:14;100786.19;;;4.95;100.00
64521;BME280;50896;46.714;17.322;2023-02-19T01:13:42;100776.38;;;4.86;100.00
64521;BME280;50896;46.714;17.322;2023-02-19T01:16:18;100766.03;;;4.83;100.00
64521;BME280;50896;46.714;17.322;2023-02-19T01:18:47;100785.59;;;4.91;100.00
64521;BME280;50896;46.714;17.322;2023-02-19T01:21:21;100786.91;;;4.97;100.00
64521;BME280;50896;46.714;17.322;2023-02-19T01:23:49;100785.22;;;4.96;100.00
64521;BME280;50896;46.714;17.322;2023-02-19T01:26:19;100762.09;;;4.88;100.00
64521;BME280;50896;46.714;17.322;2023-02-19T01:28:46;100756.94;;;4.87;100.00
64521;BME280;50896;46.714;17.322;2023-02-19T01:31:17;100774.34;;;5.01;100.00
64521;BME280;50896;46.714;17.322;2023-02-19T01:33:46;100768.94;;;5.02;100.00
64521;BME280;50896;46.714;17.322;2023-02-19T01:36:13;100747.13;;;4.89;100.00
64521;BME280;50896;46.714;17.322;2023-02-19T01:38:41;100768.50;;;5.08;100.00
64521;BME280;50896;46.714;17.322;2023-02-19T01:41:12;100770.31;;;5.19;100.00
64521;BME280;50896;46.714;17.322;2023-02-19T01:46:40;100760.59;;;5.20;100.00
64521;BME280;50896;46.714;17.322;2023-02-19T01:51:40;100769.56;;;5.28;100.00
64521;BME280;50896;46.714;17.322;2023-02-19T01:54:11;100763.22;;;5.20;100.00
64521;BME280;50896;46.714;17.322;2023-02-19T01:56:41;100773.41;;;5.36;100.00
64521;BME280;50896;46.714;17.322;2023-02-19T01:59:09;100770.88;;;5.34;100.00
64521;BME280;50896;46.714;17.322;2023-02-19T02:01:37;100768.38;;;5.33;100.00
64521;BME280;50896;46.714;17.322;2023-02-19T02:04:07;100773.53;;;5.34;100.00
64521;BME280;50896;46.714;17.322;2023-02-19T02:06:54;100768.88;;;5.26;100.00
64521;BME280;50896;46.714;17.322;2023-02-19T02:09:26;100742.97;;;5.20;100.00
64521;BME280;50896;46.714;17.322;2023-02-19T02:12:11;100739.25;;;5.11;100.00
64521;BME280;50896;46.714;17.322;2023-02-19T02:14:42;100740.00;;;5.13;100.00
64521;BME280;50896;46.714;17.322;2023-02-19T02:17:28;100721.88;;;5.09;100.00
64521;BME280;50896;46.714;17.322;2023-02-19T02:31:27;100757.31;;;4.93;100.00
64521;BME280;50896;46.714;17.322;2023-02-19T02:36:59;100759.72;;;4.96;100.00
64521;BME280;50896;46.714;17.322;2023-02-19T02:39:26;100723.44;;;4.89;100.00
64521;BME280;50896;46.714;17.322;2023-02-19T02:41:57;100746.31;;;5.00;100.00
64521;BME280;50896;46.714;17.322;2023-02-19T02:44:52;100741.06;;;5.00;100.00
64521;BME280;50896;46.714;17.322;2023-02-19T02:47:52;100747.03;;;5.02;100.00
64521;BME280;50896;46.714;17.322;2023-02-19T02:50:22;100748.72;;;5.03;100.00
64521;BME280;50896;46.714;17.322;2023-02-19T02:52:56;100746.09;;;5.03;100.00
64521;BME280;50896;46.714;17.322;2023-02-19T02:55:46;100724.50;;;4.97;100.00
64521;BME280;50896;46.714;17.322;2023-02-19T02:58:15;100749.56;;;5.14;100.00
64521;BME280;50896;46.714;17.322;2023-02-19T03:00:45;100751.94;;;5.18;100.00
64521;BME280;50896;46.714;17.322;2023-02-19T03:03:37;100756.16;;;5.31;100.00
64521;BME280;50896;46.714;17.322;2023-02-19T03:06:08;100750.88;;;5.31;100.00
64521;BME280;50896;46.714;17.322;2023-02-19T03:08:53;100748.47;;;5.40;100.00
64521;BME280;50896;46.714;17.322;2023-02-19T03:11:22;100749.22;;;5.42;100.00
64521;BME280;50896;46.714;17.322;2023-02-19T03:14:17;100729.69;;;5.33;100.00
64521;BME280;50896;46.714;17.322;2023-02-19T03:17:18;100738.53;;;5.43;100.00
64521;BME280;50896;46.714;17.322;2023-02-19T03:20:09;100749.34;;;5.40;100.00
64521;BME280;50896;46.714;17.322;2023-02-19T03:22:39;100751.25;;;5.38;100.00
64521;BME280;50896;46.714;17.322;2023-02-19T03:25:12;100760.84;;;5.39;100.00
64521;BME280;50896;46.714;17.322;2023-02-19T03:28:00;100733.16;;;5.22;100.00
64521;BME280;50896;46.714;17.322;2023-02-19T03:30:32;100742.25;;;5.18;100.00
64521;BME280;50896;46.714;17.322;2023-02-19T03:33:11;100750.53;;;5.25;100.00
64521;BME280;50896;46.714;17.322;2023-02-19T03:35:52;100740.94;;;5.24;100.00
64521;BME280;50896;46.714;17.322;2023-02-19T03:38:27;100753.16;;;5.25;100.00
64521;BME280;50896;46.714;17.322;2023-02-19T03:43:47;100752.19;;;5.26;100.00
64521;BME280;50896;46.714;17.322;2023-02-19T03:46:35;100733.72;;;5.26;100.00
64521;BME280;50896;46.714;17.322;2023-02-19T03:51:42;100753.88;;;5.27;100.00
64521;BME280;50896;46.714;17.322;2023-02-19T03:54:16;100716.03;;;5.05;100.00
64521;BME280;50896;46.714;17.322;2023-02-19T04:02:28;100739.88;;;5.26;100.00
64521;BME280;50896;46.714;17.322;2023-02-19T04:05:10;100738.19;;;5.25;100.00
64521;BME280;50896;46.714;17.322;2023-02-19T04:07:40;100742.97;;;5.31;100.00
64521;BME280;50896;46.714;17.322;2023-02-19T04:10:09;100731.34;;;5.34;100.00
64521;BME280;50896;46.714;17.322;2023-02-19T04:12:49;100758.91;;;5.41;100.00
64521;BME280;50896;46.714;17.322;2023-02-19T04:15:21;100765.63;;;5.45;100.00
64521;BME280;50896;46.714;17.322;2023-02-19T04:18:02;100741.06;;;5.34;100.00
64521;BME280;50896;46.714;17.322;2023-02-19T04:20:34;100759.28;;;5.37;100.00
64521;BME280;50896;46.714;17.322;2023-02-19T04:23:04;100767.06;;;5.38;100.00
64521;BME280;50896;46.714;17.322;2023-02-19T04:25:32;100773.19;;;5.39;100.00
64521;BME280;50896;46.714;17.322;2023-02-19T04:28:00;100774.38;;;5.35;100.00
64521;BME280;50896;46.714;17.322;2023-02-19T04:30:28;100775.81;;;5.27;100.00
64521;BME280;50896;46.714;17.322;2023-02-19T04:32:55;100777.34;;;5.19;100.00
64521;BME280;50896;46.714;17.322;2023-02-19T04:35:22;100774.97;;;5.16;100.00
64521;BME280;50896;46.714;17.322;2023-02-19T04:37:48;100772.81;;;5.09;100.00
64521;BME280;50896;46.714;17.322;2023-02-19T04:40:16;100755.75;;;5.02;100.00
64521;BME280;50896;46.714;17.322;2023-02-19T04:42:42;100741.75;;;4.90;100.00
64521;BME280;50896;46.714;17.322;2023-02-19T04:45:09;100744.16;;;4.93;100.00
64521;BME280;50896;46.714;17.322;2023-02-19T04:47:36;100730.59;;;4.87;100.00
64521;BME280;50896;46.714;17.322;2023-02-19T04:50:03;100757.56;;;5.02;100.00
64521;BME280;50896;46.714;17.322;2023-02-19T04:52:30;100747.50;;;4.95;100.00
64521;BME280;50896;46.714;17.322;2023-02-19T04:54:57;100730.72;;;4.85;100.00
64521;BME280;50896;46.714;17.322;2023-02-19T04:57:23;100752.41;;;4.89;100.00
64521;BME280;50896;46.714;17.322;2023-02-19T04:59:51;100749.50;;;4.81;100.00
64521;BME280;50896;46.714;17.322;2023-02-19T05:02:17;100748.78;;;4.78;100.00
64521;BME280;50896;46.714;17.322;2023-02-19T05:04:44;100748.91;;;4.77;100.00
64521;BME280;50896;46.714;17.322;2023-02-19T05:07:11;100751.53;;;4.77;100.00
64521;BME280;50896;46.714;17.322;2023-02-19T05:09:38;100738.00;;;4.70;100.00
64521;BME280;50896;46.714;17.322;2023-02-19T05:12:05;100752.59;;;4.74;100.00
64521;BME280;50896;46.714;17.322;2023-02-19T05:14:32;100742.78;;;4.65;100.00
64521;BME280;50896;46.714;17.322;2023-02-19T05:16:59;100740.50;;;4.60;100.00
64521;BME280;50896;46.714;17.322;2023-02-19T05:19:25;100732.47;;;4.62;100.00
64521;BME280;50896;46.714;17.322;2023-02-19T05:21:53;100731.84;;;4.58;100.00
64521;BME280;50896;46.714;17.322;2023-02-19T05:24:19;100736.41;;;4.56;100.00
64521;BME280;50896;46.714;17.322;2023-02-19T05:26:46;100729.59;;;4.54;100.00
64521;BME280;50896;46.714;17.322;2023-02-19T05:29:14;100738.44;;;4.53;100.00
64521;BME280;50896;46.714;17.322;2023-02-19T05:31:41;100747.28;;;4.52;100.00
64521;BME280;50896;46.714;17.322;2023-02-19T05:34:08;100753.03;;;4.57;100.00
64521;BME280;50896;46.714;17.322;2023-02-19T05:36:35;100749.59;;;4.56;100.00
64521;BME280;50896;46.714;17.322;2023-02-19T05:39:02;100765.38;;;4.56;100.00
64521;BME280;50896;46.714;17.322;2023-02-19T05:41:32;100719.47;;;4.36;100.00
64521;BME280;50896;46.714;17.322;2023-02-19T05:43:59;100741.44;;;4.59;100.00
64521;BME280;50896;46.714;17.322;2023-02-19T05:46:27;100717.84;;;4.47;100.00
64521;BME280;50896;46.714;17.322;2023-02-19T05:48:55;100725.75;;;4.58;100.00
64521;BME280;50896;46.714;17.322;2023-02-19T05:51:25;100725.88;;;4.56;100.00
64521;BME280;50896;46.714;17.322;2023-02-19T05:53:52;100734.13;;;4.63;100.00
64521;BME280;50896;46.714;17.322;2023-02-19T05:56:32;100721.31;;;4.58;100.00
64521;BME280;50896;46.714;17.322;2023-02-19T05:59:18;100721.34;;;4.70;100.00
64521;BME280;50896;46.714;17.322;2023-02-19T06:01:46;100742.81;;;4.88;100.00
64521;BME280;50896;46.714;17.322;2023-02-19T06:04:13;100742.38;;;4.94;100.00
64521;BME280;50896;46.714;17.322;2023-02-19T06:06:41;100732.66;;;4.94;100.00
64521;BME280;50896;46.714;17.322;2023-02-19T06:09:09;100719.84;;;5.01;100.00
64521;BME280;50896;46.714;17.322;2023-02-19T06:11:37;100742.97;;;5.20;100.00
64521;BME280;50896;46.714;17.322;2023-02-19T06:14:04;100749.22;;;5.30;100.00
64521;BME280;50896;46.714;17.322;2023-02-19T06:16:31;100751.00;;;5.41;100.00
64521;BME280;50896;46.714;17.322;2023-02-19T06:19:02;100750.53;;;5.47;100.00
64521;BME280;50896;46.714;17.322;2023-02-19T06:21:29;100738.53;;;5.43;100.00
64521;BME280;50896;46.714;17.322;2023-02-19T06:23:56;100737.94;;;5.40;100.00
64521;BME280;50896;46.714;17.322;2023-02-19T06:26:24;100731.09;;;5.26;100.00
64521;BME280;50896;46.714;17.322;2023-02-19T06:28:52;100743.56;;;5.24;100.00
64521;BME280;50896;46.714;17.322;2023-02-19T06:31:20;100728.47;;;5.14;100.00
64521;BME280;50896;46.714;17.322;2023-02-19T06:33:47;100737.81;;;5.19;100.00
64521;BME280;50896;46.714;17.322;2023-02-19T06:36:18;100731.72;;;5.18;100.00
64521;BME280;50896;46.714;17.322;2023-02-19T06:38:47;100735.19;;;5.19;100.00
64521;BME280;50896;46.714;17.322;2023-02-19T06:41:14;100706.44;;;5.16;100.00
64521;BME280;50896;46.714;17.322;2023-02-19T06:43:41;100705.00;;;5.23;100.00
64521;BME280;50896;46.714;17.322;2023-02-19T06:46:09;100715.75;;;5.42;100.00
64521;BME280;50896;46.714;17.322;2023-02-19T06:48:37;100705.22;;;5.42;100.00
64521;BME280;50896;46.714;17.322;2023-02-19T06:51:05;100724.03;;;5.49;100.00
64521;BME280;50896;46.714;17.322;2023-02-19T06:53:32;100716.38;;;5.46;100.00
64521;BME280;50896;46.714;17.322;2023-02-19T06:56:01;100719.34;;;5.41;100.00
64521;BME280;50896;46.714;17.322;2023-02-19T06:58:28;100736.84;;;5.42;100.00
64521;BME280;50896;46.714;17.322;2023-02-19T07:00:55;100722.59;;;5.34;100.00
64521;BME280;50896;46.714;17.322;2023-02-19T07:03:22;100717.81;;;5.39;100.00
64521;BME280;50896;46.714;17.322;2023-02-19T07:05:49;100705.84;;;5.35;100.00
64521;BME280;50896;46.714;17.322;2023-02-19T07:08:16;100696.13;;;5.24;100.00
64521;BME280;50896;46.714;17.322;2023-02-19T07:10:44;100724.88;;;5.38;100.00
64521;BME280;50896;46.714;17.322;2023-02-19T07:13:11;100718.16;;;5.45;100.00
64521;BME280;50896;46.714;17.322;2023-02-19T07:15:38;100714.94;;;5.42;100.00
64521;BME280;50896;46.714;17.322;2023-02-19T07:18:04;100674.56;;;5.19;100.00
64521;BME280;50896;46.714;17.322;2023-02-19T07:20:35;100711.44;;;5.41;100.00
64521;BME280;50896;46.714;17.322;2023-02-19T07:23:03;100690.84;;;5.35;100.00
64521;BME280;50896;46.714;17.322;2023-02-19T07:25:30;100711.22;;;5.44;100.00
64521;BME280;50896;46.714;17.322;2023-02-19T07:27:57;100704.25;;;5.43;100.00
64521;BME280;50896;46.714;17.322;2023-02-19T07:30:23;100719.97;;;5.45;100.00
64521;BME280;50896;46.714;17.322;2023-02-19T07:32:50;100730.50;;;5.45;100.00
64521;BME280;50896;46.714;17.322;2023-02-19T07:35:17;100717.94;;;5.48;100.00
64521;BME280;50896;46.714;17.322;2023-02-19T07:37:44;100689.75;;;5.49;100.00
64521;BME280;50896;46.714;17.322;2023-02-19T07:40:11;100710.06;;;5.81;100.00
64521;BME280;50896;46.714;17.322;2023-02-19T07:42:37;100713.75;;;5.90;100.00
64521;BME280;50896;46.714;17.322;2023-02-19T07:45:05;100708.47;;;5.90;100.00
64521;BME280;50896;46.714;17.322;2023-02-19T07:47:31;100690.00;;;5.90;100.00
64521;BME280;50896;46.714;17.322;2023-02-19T07:49:58;100683.75;;;6.02;100.00
64521;BME280;50896;46.714;17.322;2023-02-19T07:52:25;100662.03;;;5.98;100.00
64521;BME280;50896;46.714;17.322;2023-02-19T07:54:52;100672.38;;;6.23;100.00
64521;BME280;50896;46.714;17.322;2023-02-19T07:57:19;100676.13;;;6.41;100.00
64521;BME280;50896;46.714;17.322;2023-02-19T07:59:45;100680.44;;;6.42;100.00
64521;BME280;50896;46.714;17.322;2023-02-19T08:02:17;100707.63;;;6.33;100.00
64521;BME280;50896;46.714;17.322;2023-02-19T08:05:03;100713.16;;;6.30;100.00
64521;BME280;50896;46.714;17.322;2023-02-19T08:07:32;100704.34;;;6.20;100.00
64521;BME280;50896;46.714;17.322;2023-02-19T08:09:59;100718.84;;;6.25;100.00
64521;BME280;50896;46.714;17.322;2023-02-19T08:12:44;100708.69;;;6.09;100.00
64521;BME280;50896;46.714;17.322;2023-02-19T08:15:31;100721.63;;;6.12;100.00
64521;BME280;50896;46.714;17.322;2023-02-19T08:17:58;100715.91;;;6.07;100.00
64521;BME280;50896;46.714;17.322;2023-02-19T08:20:25;100720.56;;;6.04;100.00
64521;BME280;50896;46.714;17.322;2023-02-19T08:22:52;100712.78;;;6.02;100.00
64521;BME280;50896;46.714;17.322;2023-02-19T08:25:18;100709.44;;;6.00;100.00
64521;BME280;50896;46.714;17.322;2023-02-19T08:27:45;100692.38;;;5.93;100.00
64521;BME280;50896;46.714;17.322;2023-02-19T08:30:12;100691.66;;;6.02;100.00
64521;BME280;50896;46.714;17.322;2023-02-19T08:32:39;100695.69;;;6.18;100.00
64521;BME280;50896;46.714;17.322;2023-02-19T08:35:06;100690.34;;;6.29;100.00
64521;BME280;50896;46.714;17.322;2023-02-19T08:37:32;100693.19;;;6.37;100.00
64521;BME280;50896;46.714;17.322;2023-02-19T08:39:59;100676.84;;;6.43;100.00
64521;BME280;50896;46.714;17.322;2023-02-19T08:42:27;100670.91;;;6.51;100.00
64521;BME280;50896;46.714;17.322;2023-02-19T08:44:54;100668.59;;;6.58;100.00
64521;BME280;50896;46.714;17.322;2023-02-19T08:47:21;100681.34;;;6.53;100.00
64521;BME280;50896;46.714;17.322;2023-02-19T08:49:48;100677.94;;;6.62;100.00
64521;BME280;50896;46.714;17.322;2023-02-19T08:52:15;100656.59;;;6.54;100.00
64521;BME280;50896;46.714;17.322;2023-02-19T08:54:42;100674.31;;;6.63;100.00
64521;BME280;50896;46.714;17.322;2023-02-19T08:57:08;100651.25;;;6.65;100.00
64521;BME280;50896;46.714;17.322;2023-02-19T08:59:35;100636.13;;;6.67;100.00
64521;BME280;50896;46.714;17.322;2023-02-19T09:02:02;100664.41;;;6.86;100.00
64521;BME280;50896;46.714;17.322;2023-02-19T09:04:29;100653.84;;;6.86;100.00
64521;BME280;50896;46.714;17.322;2023-02-19T09:06:56;100669.16;;;6.82;100.00
64521;BME280;50896;46.714;17.322;2023-02-19T09:09:23;100657.44;;;6.85;100.00
64521;BME280;50896;46.714;17.322;2023-02-19T09:11:49;100672.22;;;6.88;100.00
64521;BME280;50896;46.714;17.322;2023-02-19T09:14:16;100639.09;;;6.83;100.00
64521;BME280;50896;46.714;17.322;2023-02-19T09:16:43;100692.03;;;7.03;100.00
64521;BME280;50896;46.714;17.322;2023-02-19T09:19:10;100654.59;;;6.98;100.00
64521;BME280;50896;46.714;17.322;2023-02-19T09:21:36;100698.22;;;7.13;100.00
64521;BME280;50896;46.714;17.322;2023-02-19T09:24:03;100673.91;;;7.29;100.00
64521;BME280;50896;46.714;17.322;2023-02-19T09:26:30;100660.47;;;7.11;100.00
64521;BME280;50896;46.714;17.322;2023-02-19T09:28:57;100675.28;;;7.24;100.00
64521;BME280;50896;46.714;17.322;2023-02-19T09:31:24;100671.22;;;7.19;100.00
64521;BME280;50896;46.714;17.322;2023-02-19T09:33:50;100691.13;;;7.14;100.00
64521;BME280;50896;46.714;17.322;2023-02-19T09:36:17;100695.84;;;7.10;100.00
64521;BME280;50896;46.714;17.322;2023-02-19T09:38:44;100699.03;;;7.14;100.00
64521;BME280;50896;46.714;17.322;2023-02-19T09:41:19;100689.69;;;7.10;100.00
64521;BME280;50896;46.714;17.322;2023-02-19T09:43:48;100686.75;;;7.03;100.00
64521;BME280;50896;46.714;17.322;2023-02-19T09:49:01;100682.88;;;7.07;100.00
64521;BME280;50896;46.714;17.322;2023-02-19T09:51:32;100680.03;;;7.20;100.00
64521;BME280;50896;46.714;17.322;2023-02-19T09:53:59;100671.81;;;7.23;100.00
64521;BME280;50896;46.714;17.322;2023-02-19T09:56:28;100674.63;;;7.31;100.00
64521;BME280;50896;46.714;17.322;2023-02-19T09:58:56;100675.59;;;7.30;100.00
64521;BME280;50896;46.714;17.322;2023-02-19T10:01:27;100668.22;;;7.34;100.00
64521;BME280;50896;46.714;17.322;2023-02-19T10:03:56;100663.06;;;7.42;100.00
64521;BME280;50896;46.714;17.322;2023-02-19T10:06:26;100670.50;;;7.48;100.00
64521;BME280;50896;46.714;17.322;2023-02-19T10:09:23;100658.25;;;7.57;100.00
64521;BME280;50896;46.714;17.322;2023-02-19T10:11:57;100667.13;;;7.46;100.00
64521;BME280;50896;46.714;17.322;2023-02-19T10:14:31;100660.03;;;7.47;100.00
64521;BME280;50896;46.714;17.322;2023-02-19T10:17:04;100669.53;;;7.49;100.00
64521;BME280;50896;46.714;17.322;2023-02-19T10:19:32;100669.78;;;7.56;100.00
64521;BME280;50896;46.714;17.322;2023-02-19T10:22:01;100676.75;;;7.57;100.00
64521;BME280;50896;46.714;17.322;2023-02-19T10:24:29;100663.41;;;7.59;100.00
64521;BME280;50896;46.714;17.322;2023-02-19T10:26:56;100656.31;;;7.69;100.00
64521;BME280;50896;46.714;17.322;2023-02-19T10:29:23;100674.44;;;7.93;100.00
64521;BME280;50896;46.714;17.322;2023-02-19T10:32:14;100670.25;;;8.10;100.00
64521;BME280;50896;46.714;17.322;2023-02-19T10:34:44;100650.03;;;8.09;100.00
64521;BME280;50896;46.714;17.322;2023-02-19T10:37:16;100658.66;;;8.41;100.00
64521;BME280;50896;46.714;17.322;2023-02-19T10:39:47;100655.06;;;8.51;100.00
64521;BME280;50896;46.714;17.322;2023-02-19T10:42:17;100646.53;;;8.58;100.00
64521;BME280;50896;46.714;17.322;2023-02-19T10:44:46;100641.47;;;8.74;100.00
64521;BME280;50896;46.714;17.322;2023-02-19T10:47:21;100634.03;;;8.87;100.00
64521;BME280;50896;46.714;17.322;2023-02-19T10:49:50;100628.69;;;8.97;100.00
64521;BME280;50896;46.714;17.322;2023-02-19T10:52:24;100624.16;;;9.07;100.00
64521;BME280;50896;46.714;17.322;2023-02-19T10:55:36;100632.75;;;9.19;100.00
64521;BME280;50896;46.714;17.322;2023-02-19T10:58:24;100629.31;;;9.55;100.00
64521;BME280;50896;46.714;17.322;2023-02-19T11:01:15;100640.91;;;9.54;100.00
64521;BME280;50896;46.714;17.322;2023-02-19T11:06:32;100617.94;;;9.81;100.00
64521;BME280;50896;46.714;17.322;2023-02-19T11:09:00;100604.59;;;9.90;100.00
64521;BME280;50896;46.714;17.322;2023-02-19T11:11:36;100576.13;;;10.01;100.00
64521;BME280;50896;46.714;17.322;2023-02-19T11:14:24;100601.56;;;10.30;100.00
64521;BME280;50896;46.714;17.322;2023-02-19T11:16:54;100599.13;;;10.63;100.00
64521;BME280;50896;46.714;17.322;2023-02-19T11:19:39;100578.19;;;10.94;100.00
64521;BME280;50896;46.714;17.322;2023-02-19T11:22:28;100566.81;;;11.35;100.00
64521;BME280;50896;46.714;17.322;2023-02-19T11:25:04;100575.00;;;11.74;100.00
64521;BME280;50896;46.714;17.322;2023-02-19T11:27:32;100580.47;;;12.47;100.00
64521;BME280;50896;46.714;17.322;2023-02-19T11:31:11;100563.44;;;14.95;100.00
64521;BME280;50896;46.714;17.322;2023-02-19T11:35:54;100523.88;;;19.60;44.64
64521;BME280;50896;46.714;17.322;2023-02-19T11:38:23;100538.19;;;21.76;38.47
64521;BME280;50896;46.714;17.322;2023-02-19T11:48:48;100559.03;;;27.27;27.88
64521;BME280;50896;46.714;17.322;2023-02-19T11:51:35;100554.34;;;26.39;28.74
64521;BME280;50896;46.714;17.322;2023-02-19T11:54:46;100551.63;;;25.96;29.08
64521;BME280;50896;46.714;17.322;2023-02-19T11:57:39;100564.97;;;26.93;28.20
64521;BME280;50896;46.714;17.322;2023-02-19T12:00:25;100551.06;;;25.07;29.99
64521;BME280;50896;46.714;17.322;2023-02-19T12:03:01;100544.72;;;24.35;30.85
64521;BME280;50896;46.714;17.322;2023-02-19T12:05:49;100570.72;;;23.29;32.81
64521;BME280;50896;46.714;17.322;2023-02-19T12:16:40;100567.25;;;19.20;39.31
64521;BME280;50896;46.714;17.322;2023-02-19T12:19:16;100556.00;;;19.61;39.07
64521;BME280;50896;46.714;17.322;2023-02-19T12:36:36;100567.31;;;15.72;48.55
64521;BME280;50896;46.714;17.322;2023-02-19T12:44:50;100575.28;;;14.02;55.10
64521;BME280;50896;46.714;17.322;2023-02-19T12:47:28;100565.34;;;13.73;56.15
64521;BME280;50896;46.714;17.322;2023-02-19T12:50:06;100563.97;;;13.54;57.41
64521;BME280;50896;46.714;17.322;2023-02-19T12:52:42;100568.25;;;13.32;59.93
64521;BME280;50896;46.714;17.322;2023-02-19T12:55:23;100561.13;;;13.24;58.24
64521;BME280;50896;46.714;17.322;2023-02-19T12:57:52;100560.69;;;13.12;59.42
64521;BME280;50896;46.714;17.322;2023-02-19T13:00:29;100559.34;;;13.16;58.82
64521;BME280;50896;46.714;17.322;2023-02-19T13:03:00;100550.78;;;13.21;58.31
64521;BME280;50896;46.714;17.322;2023-02-19T13:11:48;100557.47;;;12.94;60.37
64521;BME280;50896;46.714;17.322;2023-02-19T13:14:23;100556.81;;;12.83;61.41
64521;BME280;50896;46.714;17.322;2023-02-19T13:16:58;100543.63;;;12.51;62.29
64521;BME280;50896;46.714;17.322;2023-02-19T13:19:26;100568.59;;;12.58;62.08
64521;BME280;50896;46.714;17.322;2023-02-19T13:25:02;100565.16;;;12.41;62.54
64521;BME280;50896;46.714;17.322;2023-02-19T13:30:46;100574.16;;;12.31;62.73
64521;BME280;50896;46.714;17.322;2023-02-19T13:33:43;100566.50;;;12.28;63.85
64521;BME280;50896;46.714;17.322;2023-02-19T13:36:15;100561.72;;;12.16;65.07
64521;BME280;50896;46.714;17.322;2023-02-19T13:38:46;100568.03;;;12.06;65.20
64521;BME280;50896;46.714;17.322;2023-02-19T13:41:38;100567.88;;;12.00;66.41
64521;BME280;50896;46.714;17.322;2023-02-19T13:44:15;100534.88;;;11.76;66.19
64521;BME280;50896;46.714;17.322;2023-02-19T13:46:45;100545.88;;;11.89;65.37
64521;BME280;50896;46.714;17.322;2023-02-19T13:51:55;100577.72;;;11.99;65.39
64521;BME280;50896;46.714;17.322;2023-02-19T13:54:33;100577.72;;;11.99;66.46
64521;BME280;50896;46.714;17.322;2023-02-19T13:59:53;100581.03;;;11.85;66.38
64521;BME280;50896;46.714;17.322;2023-02-19T14:02:23;100592.66;;;11.75;66.63
64521;BME280;50896;46.714;17.322;2023-02-19T14:08:09;100573.34;;;11.49;66.21
64521;BME280;50896;46.714;17.322;2023-02-19T14:18:56;100605.81;;;11.77;66.37
64521;BME280;50896;46.714;17.322;2023-02-19T14:21:24;100601.66;;;11.91;65.48
64521;BME280;50896;46.714;17.322;2023-02-19T14:23:57;100595.69;;;11.97;65.17
64521;BME280;50896;46.714;17.322;2023-02-19T14:26:26;100587.22;;;12.02;65.74
64521;BME280;50896;46.714;17.322;2023-02-19T14:28:53;100600.00;;;12.14;65.27
64521;BME280;50896;46.714;17.322;2023-02-19T14:31:28;100604.19;;;12.09;64.68
64521;BME280;50896;46.714;17.322;2023-02-19T14:34:16;100601.34;;;12.10;64.39
64521;BME280;50896;46.714;17.322;2023-02-19T14:36:57;100595.50;;;11.99;65.69
64521;BME280;50896;46.714;17.322;2023-02-19T14:39:30;100590.19;;;12.07;65.94
64521;BME280;50896;46.714;17.322;2023-02-19T14:42:05;100587.81;;;12.37;64.56
64521;BME280;50896;46.714;17.322;2023-02-19T14:44:45;100596.41;;;12.63;64.40
64521;BME280;50896;46.714;17.322;2023-02-19T14:47:16;100569.81;;;12.30;65.22
64521;BME280;50896;46.714;17.322;2023-02-19T14:50:12;100590.00;;;12.25;65.78